LDZA/ZAG METAR and TAF weather

Enter ICAO airport designator
Station Type Date Time Source
LDZA METAR 2023/02/05 19:30 UTC NOAA

LDZA 051930Z VRB02KT CAVOK M03/M09 Q1035 NOSIG


Station Type Date Time Source
LDZA Decoded METAR 2023/02/05 19:30 UTC NOAA

Zagreb / Pleso, Croatia (LDZA) 45-44N 016-04E 107M
Feb 05, 2023 - 02:30 PM EST / 2023.02.05 1930 UTC
Wind: Variable at 2 MPH (2 KT):0
Visibility: greater than 7 mile(s):0
Temperature: 26 F (-3 C)
Dew Point: 15 F (-9 C)
Relative Humidity: 63%
Pressure (altimeter): 30.56 in. Hg (1035 hPa)
ob: LDZA 051930Z VRB02KT CAVOK M03/M09 Q1035 NOSIG
cycle: 19

Station Type Date Time Source
LDZA TAF 2023/02/05 18:27 UTC NOAA

TAF LDZA 051725Z 0518/0618 04006KT CAVOK TX00/0613Z TNM05/0605Z

Example: see airport list